createdAt,value
2019-02-24T00:02:28.210Z,100328.91
2019-02-24T00:05:00.599Z,100316.45
2019-02-24T00:07:30.018Z,100320.33
2019-02-24T00:10:00.555Z,100310.73
2019-02-24T00:12:31.412Z,100313.82
2019-02-24T00:15:04.365Z,100311.74
2019-02-24T00:17:35.521Z,100311.41
2019-02-24T00:20:05.982Z,100310.84
2019-02-24T00:22:38.220Z,100300.80
2019-02-24T00:25:07.547Z,100298.45
2019-02-24T00:27:38.088Z,100301.77
2019-02-24T00:30:09.192Z,100291.81
2019-02-24T00:32:38.627Z,100287.38
2019-02-24T00:35:08.934Z,100285.16
2019-02-24T00:37:38.324Z,100280.98
2019-02-24T00:40:07.906Z,100283.87
2019-02-24T00:42:39.068Z,100282.52
2019-02-24T00:45:08.700Z,100289.53
2019-02-24T00:47:40.071Z,100288.87
2019-02-24T00:50:11.304Z,100286.84
2019-02-24T00:52:42.525Z,100288.72
2019-02-24T00:55:12.023Z,100289.84
2019-02-24T00:57:44.879Z,100287.34
2019-02-24T01:00:15.253Z,100281.63
2019-02-24T01:02:44.698Z,100290.65
2019-02-24T01:05:15.952Z,100286.84
2019-02-24T01:07:46.369Z,100286.02
2019-02-24T01:10:15.904Z,100281.32
2019-02-24T01:12:48.820Z,100283.43
2019-02-24T01:15:19.198Z,100298.09
2019-02-24T01:17:48.716Z,100292.91
2019-02-24T01:20:21.586Z,100289.47
2019-02-24T01:22:51.124Z,100291.84
2019-02-24T01:25:22.245Z,100292.61
2019-02-24T01:27:51.704Z,100296.63
2019-02-24T01:30:22.287Z,100295.27
2019-02-24T01:32:53.426Z,100289.38
2019-02-24T01:35:22.865Z,100291.48
2019-02-24T01:37:53.963Z,100291.84
2019-02-24T01:40:24.374Z,100288.63
2019-02-24T01:42:54.872Z,100296.73
2019-02-24T01:45:24.260Z,100297.14
2019-02-24T01:47:55.431Z,100287.56
2019-02-24T01:50:27.300Z,100295.09
2019-02-24T01:52:57.663Z,100282.71
2019-02-24T01:55:27.001Z,100289.23
2019-02-24T01:57:56.613Z,100288.13
2019-02-24T02:00:27.879Z,100289.69
2019-02-24T02:02:58.501Z,100291.55
2019-02-24T02:05:29.881Z,100292.23
2019-02-24T02:08:00.305Z,100295.88
2019-02-24T02:10:31.430Z,100286.48
2019-02-24T02:13:00.704Z,100293.25
2019-02-24T02:15:29.964Z,100284.25
2019-02-24T02:17:59.254Z,100290.80
2019-02-24T02:20:28.504Z,100287.53
2019-02-24T02:22:57.793Z,100283.20
2019-02-24T02:25:27.201Z,100282.91
2019-02-24T02:27:56.443Z,100282.38
2019-02-24T02:30:26.692Z,100287.22
2019-02-24T02:32:56.007Z,100278.13
2019-02-24T02:35:25.263Z,100283.35
2019-02-24T02:37:54.546Z,100284.98
2019-02-24T02:40:23.803Z,100275.30
2019-02-24T02:42:53.089Z,100275.45
2019-02-24T02:45:22.339Z,100267.84
2019-02-24T02:47:51.610Z,100261.86
2019-02-24T02:50:21.194Z,100258.83
2019-02-24T02:52:50.487Z,100258.89
2019-02-24T02:55:19.760Z,100251.73
2019-02-24T02:57:50.202Z,100253.67
2019-02-24T03:00:35.786Z,100248.55
2019-02-24T03:03:05.093Z,100245.02
2019-02-24T03:05:34.362Z,100238.31
2019-02-24T03:08:09.339Z,100246.68
2019-02-24T03:10:38.598Z,100247.71
2019-02-24T03:13:07.882Z,100255.03
2019-02-24T03:15:37.136Z,100253.97
2019-02-24T03:18:06.492Z,100255.63
2019-02-24T03:20:35.769Z,100245.80
2019-02-24T03:23:05.272Z,100252.48
2019-02-24T03:25:34.553Z,100248.31
2019-02-24T03:28:04.915Z,100250.12
2019-02-24T03:30:34.211Z,100243.68
2019-02-24T03:33:03.461Z,100239.81
2019-02-24T03:35:32.719Z,100235.94
2019-02-24T03:38:01.997Z,100242.14
2019-02-24T03:40:31.356Z,100238.92
2019-02-24T03:43:00.636Z,100237.56
2019-02-24T03:45:29.918Z,100238.46
2019-02-24T03:47:59.212Z,100240.10
2019-02-24T03:50:28.501Z,100241.45
2019-02-24T03:52:57.788Z,100237.74
2019-02-24T03:55:27.063Z,100238.90
2019-02-24T03:57:56.616Z,100241.00
2019-02-24T04:00:25.899Z,100247.88
2019-02-24T04:02:55.162Z,100238.62
2019-02-24T04:05:24.472Z,100238.87
2019-02-24T04:07:53.728Z,100234.50
2019-02-24T04:10:23.007Z,100235.65
2019-02-24T04:12:52.527Z,100226.97
2019-02-24T04:15:21.803Z,100229.48
2019-02-24T04:17:51.075Z,100232.36
2019-02-24T04:20:20.346Z,100235.02
2019-02-24T04:22:49.652Z,100228.27
2019-02-24T04:25:18.969Z,100232.89
2019-02-24T04:27:48.224Z,100238.00
2019-02-24T04:30:17.503Z,100235.71
2019-02-24T04:32:46.755Z,100249.59
2019-02-24T04:35:16.253Z,100253.39
2019-02-24T04:37:45.540Z,100255.13
2019-02-24T04:40:14.803Z,100262.73
2019-02-24T04:42:44.069Z,100275.37
2019-02-24T04:45:13.327Z,100279.20
2019-02-24T04:47:42.621Z,100278.77
2019-02-24T04:50:11.887Z,100286.09
2019-02-24T04:52:41.144Z,100292.96
2019-02-24T04:55:10.446Z,100287.43
2019-02-24T04:57:39.703Z,100299.70
2019-02-24T05:00:09.274Z,100297.58
2019-02-24T05:02:39.556Z,100297.11
2019-02-24T05:05:10.326Z,100296.23
2019-02-24T05:07:39.607Z,100290.49
2019-02-24T05:10:08.865Z,100284.62
2019-02-24T05:12:38.139Z,100284.70
2019-02-24T05:15:07.552Z,100287.55
2019-02-24T05:17:38.705Z,100288.59
2019-02-24T05:20:08.102Z,100284.80
2019-02-24T05:22:37.406Z,100292.17
2019-02-24T05:25:06.969Z,100299.38
2019-02-24T05:27:36.301Z,100301.08
2019-02-24T05:30:05.999Z,100305.94
2019-02-24T05:32:35.259Z,100314.19
2019-02-24T05:35:04.565Z,100306.98
2019-02-24T05:37:33.826Z,100313.95
2019-02-24T05:40:03.281Z,100310.30
2019-02-24T05:42:32.686Z,100306.52
2019-02-24T05:45:01.986Z,100311.00
2019-02-24T05:47:31.294Z,100321.20
2019-02-24T05:50:00.548Z,100316.35
2019-02-24T05:52:29.837Z,100315.44
2019-02-24T05:54:59.088Z,100314.98
2019-02-24T05:57:28.346Z,100314.87
2019-02-24T05:59:57.626Z,100309.81
2019-02-24T06:02:26.873Z,100312.73
2019-02-24T06:04:56.162Z,100314.56
2019-02-24T06:07:25.429Z,100326.03
2019-02-24T06:09:54.689Z,100324.27
2019-02-24T06:12:24.026Z,100325.42
2019-02-24T06:14:53.272Z,100328.28
2019-02-24T06:17:22.548Z,100334.13
2019-02-24T06:19:51.853Z,100342.81
2019-02-24T06:22:21.106Z,100334.56
2019-02-24T06:24:50.372Z,100337.14
2019-02-24T06:27:19.675Z,100335.84
2019-02-24T06:29:49.157Z,100330.42
2019-02-24T06:32:18.428Z,100324.77
2019-02-24T06:34:47.682Z,100326.23
2019-02-24T06:37:16.988Z,100322.39
2019-02-24T06:39:46.251Z,100324.80
2019-02-24T06:42:15.532Z,100321.92
2019-02-24T06:44:45.919Z,100320.55
2019-02-24T06:47:17.031Z,100314.89
2019-02-24T06:49:47.397Z,100319.98
2019-02-24T06:52:18.334Z,100313.80
2019-02-24T06:54:47.619Z,100311.55
2019-02-24T06:57:16.899Z,100309.13
2019-02-24T06:59:46.192Z,100309.17
2019-02-24T07:02:16.188Z,100311.00
2019-02-24T07:04:45.437Z,100306.58
2019-02-24T07:07:14.794Z,100306.72
2019-02-24T07:09:44.081Z,100310.44
2019-02-24T07:12:13.360Z,100314.41
2019-02-24T07:14:44.654Z,100317.78
2019-02-24T07:17:15.892Z,100321.80
2019-02-24T07:19:45.332Z,100321.61
2019-02-24T07:22:16.981Z,100316.45
2019-02-24T07:24:49.380Z,100318.39
2019-02-24T07:27:21.820Z,100307.87
2019-02-24T07:29:51.516Z,100305.28
2019-02-24T07:32:23.708Z,100288.27
2019-02-24T07:34:53.060Z,100285.13
2019-02-24T07:37:22.340Z,100268.09
2019-02-24T07:39:51.672Z,100262.80
2019-02-24T07:42:21.622Z,100259.23
2019-02-24T07:44:50.923Z,100267.49
2019-02-24T07:47:20.257Z,100267.24
2019-02-24T07:49:49.886Z,100268.04
2019-02-24T07:52:19.220Z,100264.61
2019-02-24T07:54:48.588Z,100284.16
2019-02-24T07:57:17.892Z,100288.24
2019-02-24T07:59:48.243Z,100295.33
2019-02-24T08:02:17.714Z,100311.70
2019-02-24T08:04:46.968Z,100314.62
2019-02-24T08:07:16.250Z,100321.22
2019-02-24T08:09:47.411Z,100314.41
2019-02-24T08:12:17.803Z,100314.79
2019-02-24T08:14:47.493Z,100309.58
2019-02-24T08:17:16.744Z,100303.20
2019-02-24T08:19:46.115Z,100310.44
2019-02-24T08:22:15.463Z,100312.05
2019-02-24T08:24:44.792Z,100309.42
2019-02-24T08:27:14.105Z,100305.02
2019-02-24T08:29:43.424Z,100304.47
2019-02-24T08:32:12.715Z,100299.56
2019-02-24T08:34:42.026Z,100288.08
2019-02-24T08:37:11.420Z,100285.52
2019-02-24T08:39:40.675Z,100283.21
2019-02-24T08:42:09.944Z,100291.78
2019-02-24T08:44:39.227Z,100288.30
2019-02-24T08:47:07.816Z,100289.39
2019-02-24T08:49:37.101Z,100298.53
2019-02-24T08:52:07.354Z,100308.38
2019-02-24T08:54:37.190Z,100301.33
2019-02-24T08:57:06.438Z,100301.04
2019-02-24T08:59:35.701Z,100296.97
2019-02-24T09:02:04.970Z,100293.47
2019-02-24T09:04:34.225Z,100298.08
2019-02-24T09:07:03.517Z,100297.06
2019-02-24T09:09:32.820Z,100295.73
2019-02-24T09:12:02.129Z,100292.55
2019-02-24T09:14:31.432Z,100290.07
2019-02-24T09:17:00.681Z,100284.58
2019-02-24T09:19:29.956Z,100281.36
2019-02-24T09:21:59.208Z,100278.89
2019-02-24T09:24:28.489Z,100286.87
2019-02-24T09:26:58.471Z,100282.53
2019-02-24T09:29:27.758Z,100288.45
2019-02-24T09:31:57.024Z,100291.75
2019-02-24T09:34:26.331Z,100284.83
2019-02-24T09:36:55.604Z,100291.19
2019-02-24T09:39:25.748Z,100298.47
2019-02-24T09:41:57.181Z,100292.50
2019-02-24T09:44:28.582Z,100284.09
2019-02-24T09:47:00.055Z,100288.14
2019-02-24T09:49:31.420Z,100295.48
2019-02-24T09:52:02.841Z,100294.89
2019-02-24T09:54:34.263Z,100301.72
2019-02-24T09:57:05.501Z,100312.66
2019-02-24T09:59:35.591Z,100316.36
2019-02-24T10:02:06.561Z,100310.77
2019-02-24T10:04:38.607Z,100306.02
2019-02-24T10:07:08.972Z,100296.70
2019-02-24T10:09:39.507Z,100300.23
2019-02-24T10:12:10.038Z,100306.50
2019-02-24T10:14:39.507Z,100300.42
2019-02-24T10:17:09.312Z,100297.09
2019-02-24T10:19:38.596Z,100293.50
2019-02-24T10:22:07.991Z,100294.48
2019-02-24T10:24:37.297Z,100303.62
2019-02-24T10:27:08.043Z,100301.16
2019-02-24T10:29:37.424Z,100305.67
2019-02-24T10:32:06.725Z,100311.36
2019-02-24T10:34:37.442Z,100306.53
2019-02-24T10:37:08.177Z,100302.29
2019-02-24T10:39:37.449Z,100299.92
2019-02-24T10:42:06.758Z,100297.69
2019-02-24T10:44:36.021Z,100295.30
2019-02-24T10:47:05.304Z,100286.12
2019-02-24T10:49:34.575Z,100282.61
2019-02-24T10:52:03.868Z,100294.94
2019-02-24T10:54:33.144Z,100292.99
2019-02-24T10:57:02.607Z,100310.05
2019-02-24T10:59:31.893Z,100311.55
2019-02-24T11:02:01.144Z,100311.66
2019-02-24T11:04:30.790Z,100301.00
2019-02-24T11:07:00.064Z,100306.91
2019-02-24T11:09:29.394Z,100314.57
2019-02-24T11:11:58.704Z,100323.50
2019-02-24T11:14:27.959Z,100326.12
2019-02-24T11:16:57.238Z,100319.80
2019-02-24T11:19:26.476Z,100314.58
2019-02-24T11:21:55.766Z,100319.06
2019-02-24T11:24:25.076Z,100311.55
2019-02-24T11:26:54.339Z,100313.95
2019-02-24T11:29:23.834Z,100302.14
2019-02-24T11:31:53.156Z,100293.09
2019-02-24T11:34:22.447Z,100295.63
2019-02-24T11:36:51.730Z,100285.17
2019-02-24T11:39:21.044Z,100276.64
2019-02-24T11:41:50.295Z,100274.34
2019-02-24T11:44:19.582Z,100274.03
2019-02-24T11:46:50.697Z,100272.10
2019-02-24T11:49:19.962Z,100265.31
2019-02-24T11:51:49.338Z,100263.75
2019-02-24T11:54:18.590Z,100265.10
2019-02-24T11:56:47.875Z,100259.16
2019-02-24T11:59:17.152Z,100264.28
2019-02-24T12:01:47.765Z,100252.09
2019-02-24T12:04:17.348Z,100247.37
2019-02-24T12:06:46.651Z,100248.17
2019-02-24T12:09:15.988Z,100244.00
2019-02-24T12:11:45.245Z,100244.86
2019-02-24T12:14:14.536Z,100244.61
2019-02-24T12:16:43.835Z,100239.45
2019-02-24T12:19:13.150Z,100243.81
2019-02-24T12:21:42.476Z,100234.72
2019-02-24T12:24:11.783Z,100226.58
2019-02-24T12:26:41.073Z,100226.28
2019-02-24T12:29:10.462Z,100224.27
2019-02-24T12:31:39.807Z,100219.45
2019-02-24T12:34:09.158Z,100226.00
2019-02-24T12:36:38.431Z,100226.50
2019-02-24T12:39:08.956Z,100216.13
2019-02-24T12:41:38.237Z,100214.87
2019-02-24T12:44:07.538Z,100208.77
2019-02-24T12:46:36.876Z,100200.30
2019-02-24T12:49:07.615Z,100189.77
2019-02-24T12:51:38.420Z,100189.11
2019-02-24T12:54:07.697Z,100183.19
2019-02-24T12:56:37.126Z,100188.63
2019-02-24T12:59:06.388Z,100190.95
2019-02-24T13:01:35.707Z,100188.03
2019-02-24T13:04:05.081Z,100194.22
2019-02-24T13:06:34.368Z,100184.80
2019-02-24T13:09:03.861Z,100183.97
2019-02-24T13:11:34.239Z,100178.00
2019-02-24T13:14:03.633Z,100172.59
2019-02-24T13:16:32.893Z,100170.94
2019-02-24T13:19:02.361Z,100169.42
2019-02-24T13:21:31.568Z,100166.67
2019-02-24T13:24:00.827Z,100166.83
2019-02-24T13:26:30.103Z,100161.88
2019-02-24T13:28:59.357Z,100159.23
2019-02-24T13:31:28.752Z,100152.64
2019-02-24T13:33:58.049Z,100156.45
2019-02-24T13:36:27.449Z,100156.48
2019-02-24T13:38:58.393Z,100149.40
2019-02-24T13:41:27.767Z,100155.52
2019-02-24T13:43:57.276Z,100157.48
2019-02-24T13:46:27.647Z,100155.44
2019-02-24T13:48:57.001Z,100166.07
2019-02-24T13:51:26.430Z,100168.17
2019-02-24T13:53:55.741Z,100165.02
2019-02-24T13:56:25.154Z,100168.61
2019-02-24T13:58:56.516Z,100166.98
2019-02-24T14:01:28.329Z,100171.88
2019-02-24T14:03:58.965Z,100167.50
2019-02-24T14:06:29.553Z,100154.92
2019-02-24T14:08:58.883Z,100149.15
2019-02-24T14:11:28.636Z,100152.31
2019-02-24T14:13:57.901Z,100152.14
2019-02-24T14:16:27.198Z,100158.66
2019-02-24T14:18:56.488Z,100167.64
2019-02-24T14:21:25.837Z,100170.13
2019-02-24T14:23:55.158Z,100168.75
2019-02-24T14:26:25.900Z,100171.93
2019-02-24T14:28:55.156Z,100174.09
2019-02-24T14:31:25.594Z,100179.03
2019-02-24T14:33:54.884Z,100183.06
2019-02-24T14:36:24.180Z,100186.25
2019-02-24T14:38:53.435Z,100184.98
2019-02-24T14:41:22.784Z,100185.64
2019-02-24T14:43:52.038Z,100180.89
2019-02-24T14:46:21.365Z,100186.52
2019-02-24T14:48:50.691Z,100180.06
2019-02-24T14:51:20.141Z,100185.55
2019-02-24T14:53:49.439Z,100183.42
2019-02-24T14:56:18.725Z,100179.95
2019-02-24T14:58:48.096Z,100184.25
2019-02-24T15:01:17.366Z,100190.39
2019-02-24T15:03:46.734Z,100181.93
2019-02-24T15:06:16.005Z,100176.98
2019-02-24T15:08:45.427Z,100176.57
2019-02-24T15:11:14.724Z,100176.84
2019-02-24T15:13:44.038Z,100177.84
2019-02-24T15:16:13.310Z,100174.55
2019-02-24T15:18:42.580Z,100174.36
2019-02-24T15:21:11.853Z,100177.20
2019-02-24T15:23:41.130Z,100185.33
2019-02-24T15:26:10.429Z,100181.19
2019-02-24T15:28:41.497Z,100182.36
2019-02-24T15:31:10.769Z,100178.83
2019-02-24T15:33:40.527Z,100180.53
2019-02-24T15:36:09.777Z,100181.09
2019-02-24T15:38:39.065Z,100189.80
2019-02-24T15:41:08.374Z,100180.23
2019-02-24T15:43:37.760Z,100186.28
2019-02-24T15:46:07.033Z,100175.03
2019-02-24T15:48:36.332Z,100172.87
2019-02-24T15:51:05.663Z,100173.66
2019-02-24T15:53:34.923Z,100164.38
2019-02-24T15:56:04.811Z,100165.67
2019-02-24T15:58:34.064Z,100165.41
2019-02-24T16:01:03.348Z,100164.45
2019-02-24T16:03:32.627Z,100169.31
2019-02-24T16:06:03.382Z,100161.23
2019-02-24T16:08:32.637Z,100159.15
2019-02-24T16:11:02.014Z,100163.53
2019-02-24T16:13:31.354Z,100165.71
2019-02-24T16:16:00.614Z,100164.24
2019-02-24T16:18:29.900Z,100160.70
2019-02-24T16:20:59.154Z,100151.44
2019-02-24T16:23:28.425Z,100154.78
2019-02-24T16:25:57.669Z,100153.45
2019-02-24T16:28:27.400Z,100156.91
2019-02-24T16:30:56.671Z,100154.24
2019-02-24T16:33:25.953Z,100160.59
2019-02-24T16:35:55.248Z,100155.44
2019-02-24T16:38:24.553Z,100153.55
2019-02-24T16:40:55.290Z,100154.70
2019-02-24T16:43:24.763Z,100153.02
2019-02-24T16:45:54.141Z,100159.52
2019-02-24T16:48:23.383Z,100161.81
2019-02-24T16:50:53.912Z,100166.59
2019-02-24T16:53:23.222Z,100170.54
2019-02-24T16:55:52.524Z,100173.00
2019-02-24T16:58:21.890Z,100170.64
2019-02-24T17:00:51.237Z,100169.30
2019-02-24T17:03:20.598Z,100175.68
2019-02-24T17:05:49.847Z,100179.56
2019-02-24T17:08:19.185Z,100181.28
2019-02-24T17:10:48.875Z,100172.63
2019-02-24T17:13:18.531Z,100180.48
2019-02-24T17:15:50.654Z,100183.23
2019-02-24T17:18:21.426Z,100184.97
2019-02-24T17:20:50.984Z,100179.31
2019-02-24T17:23:20.245Z,100184.57
2019-02-24T17:25:52.975Z,100189.27
2019-02-24T17:28:22.117Z,100195.33
2019-02-24T17:30:51.359Z,100192.16
2019-02-24T17:33:29.486Z,100196.03
2019-02-24T17:35:51.806Z,100195.55
2019-02-24T17:38:22.505Z,100196.73
2019-02-24T17:40:51.782Z,100200.00
2019-02-24T17:43:22.521Z,100210.36
2019-02-24T17:45:51.827Z,100209.59
2019-02-24T17:48:22.555Z,100209.92
2019-02-24T17:50:51.872Z,100209.94
2019-02-24T17:53:21.203Z,100217.31
2019-02-24T17:55:50.570Z,100213.01
2019-02-24T17:58:24.635Z,100208.41
2019-02-24T18:01:04.690Z,100213.31
2019-02-24T18:03:39.450Z,100218.48
2019-02-24T18:06:05.580Z,100215.77
2019-02-24T18:08:34.833Z,100213.59
2019-02-24T18:11:05.866Z,100219.27
2019-02-24T18:13:35.196Z,100214.66
2019-02-24T18:16:06.406Z,100214.66
2019-02-24T18:18:35.739Z,100212.20
2019-02-24T18:21:06.558Z,100223.08
2019-02-24T18:23:36.171Z,100229.02
2019-02-24T18:26:05.459Z,100234.44
2019-02-24T18:28:34.737Z,100238.52
2019-02-24T18:31:04.239Z,100240.45
2019-02-24T18:33:33.520Z,100245.05
2019-02-24T18:36:03.898Z,100238.26
2019-02-24T18:38:34.620Z,100226.86
2019-02-24T18:41:03.897Z,100228.77
2019-02-24T18:43:33.172Z,100234.97
2019-02-24T18:46:02.697Z,100239.28
2019-02-24T18:48:32.052Z,100234.39
2019-02-24T18:51:01.365Z,100232.98
2019-02-24T18:53:30.622Z,100229.19
2019-02-24T18:56:01.750Z,100232.12
2019-02-24T18:58:31.126Z,100239.42
2019-02-24T19:01:00.387Z,100239.69
2019-02-24T19:03:29.756Z,100230.69
2019-02-24T19:05:59.037Z,100234.51
2019-02-24T19:08:28.304Z,100230.44
2019-02-24T19:10:57.769Z,100232.88
2019-02-24T19:13:27.312Z,100245.69
2019-02-24T19:15:57.049Z,100240.55
2019-02-24T19:18:27.231Z,100232.13
2019-02-24T19:20:56.818Z,100244.22
2019-02-24T19:23:26.550Z,100241.80
2019-02-24T19:25:56.199Z,100239.09
2019-02-24T19:28:25.568Z,100235.24
2019-02-24T19:30:55.313Z,100236.48
2019-02-24T19:33:25.108Z,100233.53
2019-02-24T19:35:54.757Z,100231.34
2019-02-24T19:38:24.595Z,100235.12
2019-02-24T19:40:54.319Z,100239.98
2019-02-24T19:43:23.809Z,100242.18
2019-02-24T19:45:53.244Z,100254.80
2019-02-24T19:48:22.865Z,100256.15
2019-02-24T19:50:52.386Z,100247.55
2019-02-24T19:53:22.016Z,100245.12
2019-02-24T19:55:51.474Z,100243.52
2019-02-24T19:58:21.083Z,100253.72
2019-02-24T20:00:50.462Z,100238.90
2019-02-24T20:03:20.210Z,100241.38
2019-02-24T20:05:50.128Z,100247.63
2019-02-24T20:08:19.757Z,100245.61
2019-02-24T20:10:49.405Z,100253.50
2019-02-24T20:13:19.435Z,100248.44
2019-02-24T20:15:48.984Z,100250.45
2019-02-24T20:18:18.748Z,100249.84
2019-02-24T20:20:48.339Z,100244.80
2019-02-24T20:23:18.017Z,100250.73
2019-02-24T20:25:47.314Z,100257.78
2019-02-24T20:28:16.938Z,100255.39
2019-02-24T20:30:46.502Z,100257.81
2019-02-24T20:33:16.125Z,100267.59
2019-02-24T20:35:45.626Z,100268.84
2019-02-24T20:38:15.127Z,100264.41
2019-02-24T20:40:44.811Z,100263.34
2019-02-24T20:43:14.589Z,100269.31
2019-02-24T20:45:44.007Z,100259.00
2019-02-24T20:48:13.372Z,100263.63
2019-02-24T20:50:42.727Z,100275.50
2019-02-24T20:53:12.020Z,100267.69
2019-02-24T20:55:41.320Z,100266.41
2019-02-24T20:58:10.619Z,100266.69
2019-02-24T21:00:41.090Z,100276.84
2019-02-24T21:03:10.375Z,100277.79
2019-02-24T21:05:39.657Z,100277.34
2019-02-24T21:08:08.929Z,100277.42
2019-02-24T21:10:38.246Z,100279.71
2019-02-24T21:13:07.530Z,100286.22
2019-02-24T21:15:37.211Z,100288.59
2019-02-24T21:18:06.694Z,100288.72
2019-02-24T21:20:35.992Z,100285.80
2019-02-24T21:23:05.402Z,100291.92
2019-02-24T21:25:34.697Z,100291.75
2019-02-24T21:28:05.134Z,100292.38
2019-02-24T21:30:34.516Z,100290.61
2019-02-24T21:33:03.847Z,100289.78
2019-02-24T21:35:33.204Z,100283.71
2019-02-24T21:38:02.577Z,100283.81
2019-02-24T21:40:32.018Z,100278.89
2019-02-24T21:43:01.295Z,100275.17
2019-02-24T21:45:30.775Z,100277.05
2019-02-24T21:48:00.213Z,100273.16
2019-02-24T21:50:29.598Z,100274.84
2019-02-24T21:52:58.907Z,100278.22
2019-02-24T21:55:28.513Z,100274.84
2019-02-24T21:57:57.838Z,100272.10
2019-02-24T22:00:27.424Z,100274.59
2019-02-24T22:02:56.715Z,100272.48
2019-02-24T22:05:26.115Z,100277.69
2019-02-24T22:07:55.820Z,100277.05
2019-02-24T22:10:25.263Z,100277.69
2019-02-24T22:12:54.656Z,100278.55
2019-02-24T22:15:24.110Z,100287.07
2019-02-24T22:17:53.772Z,100289.77
2019-02-24T22:20:23.158Z,100290.78
2019-02-24T22:22:52.680Z,100282.93
2019-02-24T22:25:22.018Z,100274.13
2019-02-24T22:27:51.323Z,100278.66
2019-02-24T22:30:20.588Z,100276.52
2019-02-24T22:32:49.983Z,100282.30
2019-02-24T22:35:19.488Z,100282.67
2019-02-24T22:37:48.900Z,100268.23
2019-02-24T22:40:18.266Z,100262.40
2019-02-24T22:42:47.562Z,100257.55
2019-02-24T22:45:17.356Z,100254.53
2019-02-24T22:47:46.886Z,100254.89
2019-02-24T22:50:16.558Z,100252.06
2019-02-24T22:52:46.103Z,100260.05
2019-02-24T22:55:16.207Z,100258.81
2019-02-24T22:57:45.571Z,100262.35
2019-02-24T23:00:55.057Z,100254.14
2019-02-24T23:03:26.384Z,100262.11
2019-02-24T23:05:56.330Z,100260.92
2019-02-24T23:08:25.823Z,100268.14
2019-02-24T23:10:55.275Z,100263.52
2019-02-24T23:13:24.954Z,100260.53
2019-02-24T23:15:54.505Z,100261.00
2019-02-24T23:18:23.940Z,100255.33
2019-02-24T23:20:53.596Z,100259.11
2019-02-24T23:23:23.210Z,100262.75
2019-02-24T23:25:52.989Z,100263.33
2019-02-24T23:28:24.143Z,100266.32
2019-02-24T23:30:53.609Z,100274.98
2019-02-24T23:33:23.502Z,100256.19
2019-02-24T23:35:52.841Z,100266.86
2019-02-24T23:38:22.704Z,100262.52
2019-02-24T23:40:52.358Z,100258.48
2019-02-24T23:43:21.988Z,100263.70
2019-02-24T23:45:51.739Z,100257.25
2019-02-24T23:48:21.297Z,100260.81
2019-02-24T23:50:50.905Z,100270.69
2019-02-24T23:53:20.642Z,100262.61
2019-02-24T23:55:49.936Z,100268.35
2019-02-24T23:58:19.233Z,100260.19
